sensor_id;sensor_type;location;lat;lon;timestamp;P1;durP1;ratioP1;P2;durP2;ratioP2
53267;SDS011;39156;51.176;6.738;2023-08-30T00:00:45;43.83;;;40.83;;
53267;SDS011;39156;51.176;6.738;2023-08-30T00:03:10;43.90;;;40.70;;
53267;SDS011;39156;51.176;6.738;2023-08-30T00:05:40;46.80;;;43.85;;
53267;SDS011;39156;51.176;6.738;2023-08-30T00:08:07;43.67;;;40.78;;
53267;SDS011;39156;51.176;6.738;2023-08-30T00:10:33;46.08;;;42.97;;
53267;SDS011;39156;51.176;6.738;2023-08-30T00:13:00;45.25;;;42.33;;
53267;SDS011;39156;51.176;6.738;2023-08-30T00:15:26;45.03;;;42.13;;
53267;SDS011;39156;51.176;6.738;2023-08-30T00:17:52;44.85;;;42.13;;
53267;SDS011;39156;51.176;6.738;2023-08-30T00:20:18;46.80;;;43.83;;
53267;SDS011;39156;51.176;6.738;2023-08-30T00:22:44;44.40;;;41.40;;
53267;SDS011;39156;51.176;6.738;2023-08-30T00:25:10;43.33;;;40.47;;
53267;SDS011;39156;51.176;6.738;2023-08-30T00:27:36;44.77;;;41.80;;
53267;SDS011;39156;51.176;6.738;2023-08-30T00:30:02;43.77;;;41.07;;
53267;SDS011;39156;51.176;6.738;2023-08-30T00:32:29;43.75;;;40.85;;
53267;SDS011;39156;51.176;6.738;2023-08-30T00:34:54;42.83;;;40.27;;
53267;SDS011;39156;51.176;6.738;2023-08-30T00:37:20;42.93;;;40.13;;
53267;SDS011;39156;51.176;6.738;2023-08-30T00:39:46;42.30;;;39.60;;
53267;SDS011;39156;51.176;6.738;2023-08-30T00:42:11;44.97;;;41.90;;
53267;SDS011;39156;51.176;6.738;2023-08-30T00:44:37;46.03;;;43.13;;
53267;SDS011;39156;51.176;6.738;2023-08-30T00:47:03;44.97;;;41.97;;
53267;SDS011;39156;51.176;6.738;2023-08-30T00:49:32;47.07;;;44.10;;
53267;SDS011;39156;51.176;6.738;2023-08-30T00:51:58;43.17;;;40.30;;
53267;SDS011;39156;51.176;6.738;2023-08-30T00:54:31;46.53;;;43.53;;
53267;SDS011;39156;51.176;6.738;2023-08-30T00:56:57;45.47;;;42.70;;
53267;SDS011;39156;51.176;6.738;2023-08-30T00:59:25;44.92;;;41.95;;
53267;SDS011;39156;51.176;6.738;2023-08-30T01:01:52;45.58;;;42.67;;
53267;SDS011;39156;51.176;6.738;2023-08-30T01:04:18;45.92;;;42.85;;
53267;SDS011;39156;51.176;6.738;2023-08-30T01:06:44;44.22;;;41.42;;
53267;SDS011;39156;51.176;6.738;2023-08-30T01:09:10;47.77;;;44.67;;
53267;SDS011;39156;51.176;6.738;2023-08-30T01:11:58;47.70;;;44.60;;
53267;SDS011;39156;51.176;6.738;2023-08-30T01:14:36;44.92;;;41.85;;
53267;SDS011;39156;51.176;6.738;2023-08-30T01:17:24;46.30;;;43.40;;
53267;SDS011;39156;51.176;6.738;2023-08-30T01:19:53;45.17;;;42.25;;
53267;SDS011;39156;51.176;6.738;2023-08-30T01:28:08;46.63;;;43.65;;
53267;SDS011;39156;51.176;6.738;2023-08-30T01:33:04;44.30;;;41.47;;
53267;SDS011;39156;51.176;6.738;2023-08-30T01:38:01;44.83;;;41.72;;
53267;SDS011;39156;51.176;6.738;2023-08-30T01:40:28;46.38;;;43.38;;
53267;SDS011;39156;51.176;6.738;2023-08-30T01:42:59;46.30;;;43.42;;
53267;SDS011;39156;51.176;6.738;2023-08-30T01:45:26;48.60;;;45.22;;
53267;SDS011;39156;51.176;6.738;2023-08-30T01:47:54;47.38;;;44.40;;
53267;SDS011;39156;51.176;6.738;2023-08-30T01:50:20;43.55;;;40.85;;
53267;SDS011;39156;51.176;6.738;2023-08-30T01:52:46;46.03;;;43.10;;
53267;SDS011;39156;51.176;6.738;2023-08-30T01:57:39;42.60;;;40.00;;
53267;SDS011;39156;51.176;6.738;2023-08-30T02:00:05;43.67;;;41.00;;
53267;SDS011;39156;51.176;6.738;2023-08-30T02:02:32;44.67;;;41.78;;
53267;SDS011;39156;51.176;6.738;2023-08-30T02:04:58;48.00;;;44.80;;
53267;SDS011;39156;51.176;6.738;2023-08-30T02:07:30;46.83;;;43.83;;
53267;SDS011;39156;51.176;6.738;2023-08-30T02:10:24;45.72;;;42.65;;
53267;SDS011;39156;51.176;6.738;2023-08-30T02:12:59;43.58;;;40.63;;
53267;SDS011;39156;51.176;6.738;2023-08-30T02:15:26;44.03;;;41.30;;
53267;SDS011;39156;51.176;6.738;2023-08-30T02:17:55;46.90;;;43.97;;
53267;SDS011;39156;51.176;6.738;2023-08-30T02:20:21;44.53;;;41.72;;
53267;SDS011;39156;51.176;6.738;2023-08-30T02:22:47;44.63;;;41.92;;
53267;SDS011;39156;51.176;6.738;2023-08-30T02:25:13;45.07;;;41.87;;
53267;SDS011;39156;51.176;6.738;2023-08-30T02:27:39;44.00;;;41.35;;
53267;SDS011;39156;51.176;6.738;2023-08-30T02:30:05;44.17;;;41.38;;
53267;SDS011;39156;51.176;6.738;2023-08-30T02:34:57;44.20;;;41.53;;
53267;SDS011;39156;51.176;6.738;2023-08-30T02:37:23;42.63;;;40.13;;
53267;SDS011;39156;51.176;6.738;2023-08-30T02:39:49;46.33;;;43.28;;
53267;SDS011;39156;51.176;6.738;2023-08-30T02:42:15;43.55;;;40.75;;
53267;SDS011;39156;51.176;6.738;2023-08-30T02:44:41;43.55;;;40.80;;
53267;SDS011;39156;51.176;6.738;2023-08-30T02:47:06;41.45;;;38.85;;
53267;SDS011;39156;51.176;6.738;2023-08-30T02:49:32;45.80;;;42.88;;
53267;SDS011;39156;51.176;6.738;2023-08-30T02:51:58;42.45;;;39.95;;
53267;SDS011;39156;51.176;6.738;2023-08-30T02:54:23;43.40;;;40.78;;
53267;SDS011;39156;51.176;6.738;2023-08-30T02:56:49;44.83;;;41.95;;
53267;SDS011;39156;51.176;6.738;2023-08-30T02:59:15;45.10;;;42.40;;
53267;SDS011;39156;51.176;6.738;2023-08-30T03:01:41;44.95;;;41.58;;
53267;SDS011;39156;51.176;6.738;2023-08-30T03:04:07;44.95;;;42.17;;
53267;SDS011;39156;51.176;6.738;2023-08-30T03:06:33;44.13;;;41.42;;
53267;SDS011;39156;51.176;6.738;2023-08-30T03:08:59;43.78;;;41.05;;
53267;SDS011;39156;51.176;6.738;2023-08-30T03:11:26;44.15;;;41.45;;
53267;SDS011;39156;51.176;6.738;2023-08-30T03:13:54;43.17;;;40.63;;
53267;SDS011;39156;51.176;6.738;2023-08-30T03:16:20;43.63;;;40.92;;
53267;SDS011;39156;51.176;6.738;2023-08-30T03:18:46;40.75;;;38.38;;
53267;SDS011;39156;51.176;6.738;2023-08-30T03:21:12;45.55;;;42.85;;
53267;SDS011;39156;51.176;6.738;2023-08-30T03:23:39;45.65;;;42.83;;
53267;SDS011;39156;51.176;6.738;2023-08-30T03:26:09;45.40;;;42.55;;
53267;SDS011;39156;51.176;6.738;2023-08-30T03:28:37;43.38;;;40.70;;
53267;SDS011;39156;51.176;6.738;2023-08-30T03:31:24;41.97;;;39.22;;
53267;SDS011;39156;51.176;6.738;2023-08-30T03:33:49;44.38;;;41.60;;
53267;SDS011;39156;51.176;6.738;2023-08-30T03:36:15;44.83;;;42.10;;
53267;SDS011;39156;51.176;6.738;2023-08-30T03:38:43;42.67;;;40.15;;
53267;SDS011;39156;51.176;6.738;2023-08-30T03:41:10;45.50;;;42.83;;
53267;SDS011;39156;51.176;6.738;2023-08-30T03:43:36;43.53;;;40.55;;
53267;SDS011;39156;51.176;6.738;2023-08-30T03:46:02;42.53;;;39.92;;
53267;SDS011;39156;51.176;6.738;2023-08-30T03:48:28;44.05;;;41.45;;
53267;SDS011;39156;51.176;6.738;2023-08-30T03:50:55;42.75;;;40.10;;
53267;SDS011;39156;51.176;6.738;2023-08-30T03:53:21;42.85;;;40.15;;
53267;SDS011;39156;51.176;6.738;2023-08-30T03:55:47;44.38;;;41.33;;
53267;SDS011;39156;51.176;6.738;2023-08-30T03:58:13;43.45;;;40.95;;
53267;SDS011;39156;51.176;6.738;2023-08-30T04:00:38;42.25;;;39.75;;
53267;SDS011;39156;51.176;6.738;2023-08-30T04:03:08;44.85;;;41.85;;
53267;SDS011;39156;51.176;6.738;2023-08-30T04:05:35;43.60;;;40.95;;
53267;SDS011;39156;51.176;6.738;2023-08-30T04:08:01;44.15;;;41.50;;
53267;SDS011;39156;51.176;6.738;2023-08-30T04:10:34;44.60;;;41.90;;
53267;SDS011;39156;51.176;6.738;2023-08-30T04:13:04;45.15;;;42.47;;
53267;SDS011;39156;51.176;6.738;2023-08-30T04:15:37;47.53;;;44.53;;
53267;SDS011;39156;51.176;6.738;2023-08-30T04:18:04;44.08;;;41.47;;
53267;SDS011;39156;51.176;6.738;2023-08-30T04:20:31;41.78;;;39.30;;
53267;SDS011;39156;51.176;6.738;2023-08-30T04:22:58;44.88;;;42.05;;
53267;SDS011;39156;51.176;6.738;2023-08-30T04:25:26;44.53;;;41.75;;
53267;SDS011;39156;51.176;6.738;2023-08-30T04:27:53;44.58;;;41.92;;
53267;SDS011;39156;51.176;6.738;2023-08-30T04:30:18;42.22;;;39.60;;
53267;SDS011;39156;51.176;6.738;2023-08-30T04:32:44;43.15;;;40.40;;
53267;SDS011;39156;51.176;6.738;2023-08-30T04:35:10;47.97;;;45.08;;
53267;SDS011;39156;51.176;6.738;2023-08-30T04:37:36;44.13;;;41.42;;
53267;SDS011;39156;51.176;6.738;2023-08-30T04:42:30;45.33;;;42.43;;
53267;SDS011;39156;51.176;6.738;2023-08-30T04:44:56;47.78;;;44.63;;
53267;SDS011;39156;51.176;6.738;2023-08-30T04:47:25;44.78;;;41.78;;
53267;SDS011;39156;51.176;6.738;2023-08-30T04:49:52;44.13;;;41.33;;
53267;SDS011;39156;51.176;6.738;2023-08-30T04:52:18;47.60;;;44.50;;
53267;SDS011;39156;51.176;6.738;2023-08-30T04:54:44;48.08;;;45.15;;
53267;SDS011;39156;51.176;6.738;2023-08-30T04:57:10;47.17;;;44.03;;
53267;SDS011;39156;51.176;6.738;2023-08-30T04:59:39;48.13;;;45.03;;
53267;SDS011;39156;51.176;6.738;2023-08-30T05:02:05;44.40;;;41.53;;
53267;SDS011;39156;51.176;6.738;2023-08-30T05:04:31;45.30;;;42.40;;
53267;SDS011;39156;51.176;6.738;2023-08-30T05:06:57;47.22;;;44.13;;
53267;SDS011;39156;51.176;6.738;2023-08-30T05:09:22;48.22;;;45.00;;
53267;SDS011;39156;51.176;6.738;2023-08-30T05:14:16;46.88;;;43.78;;
53267;SDS011;39156;51.176;6.738;2023-08-30T05:16:42;47.13;;;44.05;;
53267;SDS011;39156;51.176;6.738;2023-08-30T05:19:07;47.25;;;43.95;;
53267;SDS011;39156;51.176;6.738;2023-08-30T05:21:33;48.63;;;45.30;;
53267;SDS011;39156;51.176;6.738;2023-08-30T05:23:59;45.63;;;42.57;;
53267;SDS011;39156;51.176;6.738;2023-08-30T05:26:25;45.05;;;41.78;;
53267;SDS011;39156;51.176;6.738;2023-08-30T05:28:51;45.20;;;42.30;;
53267;SDS011;39156;51.176;6.738;2023-08-30T05:31:16;45.57;;;42.57;;
53267;SDS011;39156;51.176;6.738;2023-08-30T05:33:42;42.97;;;40.07;;
53267;SDS011;39156;51.176;6.738;2023-08-30T05:36:08;47.17;;;44.17;;
53267;SDS011;39156;51.176;6.738;2023-08-30T05:38:33;43.17;;;40.53;;
53267;SDS011;39156;51.176;6.738;2023-08-30T05:40:59;42.53;;;39.92;;
53267;SDS011;39156;51.176;6.738;2023-08-30T05:43:25;42.28;;;39.33;;
53267;SDS011;39156;51.176;6.738;2023-08-30T05:45:50;44.08;;;41.45;;
53267;SDS011;39156;51.176;6.738;2023-08-30T05:48:16;42.72;;;39.78;;
53267;SDS011;39156;51.176;6.738;2023-08-30T05:50:42;44.35;;;41.45;;
53267;SDS011;39156;51.176;6.738;2023-08-30T05:53:07;44.63;;;41.70;;
53267;SDS011;39156;51.176;6.738;2023-08-30T05:55:33;44.20;;;41.45;;
53267;SDS011;39156;51.176;6.738;2023-08-30T05:57:59;45.40;;;42.60;;
53267;SDS011;39156;51.176;6.738;2023-08-30T06:00:24;43.87;;;41.10;;
53267;SDS011;39156;51.176;6.738;2023-08-30T06:02:53;42.58;;;39.97;;
53267;SDS011;39156;51.176;6.738;2023-08-30T06:05:18;41.57;;;38.90;;
53267;SDS011;39156;51.176;6.738;2023-08-30T06:07:44;40.93;;;38.30;;
53267;SDS011;39156;51.176;6.738;2023-08-30T06:10:10;40.80;;;38.33;;
53267;SDS011;39156;51.176;6.738;2023-08-30T06:12:36;41.43;;;38.93;;
53267;SDS011;39156;51.176;6.738;2023-08-30T06:15:01;40.37;;;37.87;;
53267;SDS011;39156;51.176;6.738;2023-08-30T06:17:28;41.88;;;39.38;;
53267;SDS011;39156;51.176;6.738;2023-08-30T06:19:54;40.30;;;37.97;;
53267;SDS011;39156;51.176;6.738;2023-08-30T06:22:20;40.23;;;37.73;;
53267;SDS011;39156;51.176;6.738;2023-08-30T06:24:46;44.23;;;41.37;;
53267;SDS011;39156;51.176;6.738;2023-08-30T06:27:11;39.33;;;37.00;;
53267;SDS011;39156;51.176;6.738;2023-08-30T06:29:37;40.30;;;37.60;;
53267;SDS011;39156;51.176;6.738;2023-08-30T06:32:03;38.00;;;35.50;;
53267;SDS011;39156;51.176;6.738;2023-08-30T06:34:29;39.45;;;37.10;;
53267;SDS011;39156;51.176;6.738;2023-08-30T06:36:55;37.70;;;35.60;;
53267;SDS011;39156;51.176;6.738;2023-08-30T06:39:21;37.47;;;35.07;;
53267;SDS011;39156;51.176;6.738;2023-08-30T06:41:47;40.80;;;38.28;;
53267;SDS011;39156;51.176;6.738;2023-08-30T06:44:13;38.47;;;36.13;;
53267;SDS011;39156;51.176;6.738;2023-08-30T06:46:38;37.97;;;35.60;;
53267;SDS011;39156;51.176;6.738;2023-08-30T06:49:05;39.07;;;36.60;;
53267;SDS011;39156;51.176;6.738;2023-08-30T06:51:31;38.63;;;36.42;;
53267;SDS011;39156;51.176;6.738;2023-08-30T06:53:56;38.60;;;36.37;;
53267;SDS011;39156;51.176;6.738;2023-08-30T06:56:25;36.35;;;34.25;;
53267;SDS011;39156;51.176;6.738;2023-08-30T06:58:51;35.60;;;33.60;;
53267;SDS011;39156;51.176;6.738;2023-08-30T07:01:17;35.27;;;33.17;;
53267;SDS011;39156;51.176;6.738;2023-08-30T07:03:43;34.17;;;31.93;;
53267;SDS011;39156;51.176;6.738;2023-08-30T07:06:09;34.15;;;32.20;;
53267;SDS011;39156;51.176;6.738;2023-08-30T07:08:35;32.67;;;30.77;;
53267;SDS011;39156;51.176;6.738;2023-08-30T07:11:00;32.58;;;30.77;;
53267;SDS011;39156;51.176;6.738;2023-08-30T07:13:26;33.25;;;31.27;;
53267;SDS011;39156;51.176;6.738;2023-08-30T07:15:52;32.90;;;30.63;;
53267;SDS011;39156;51.176;6.738;2023-08-30T07:18:18;31.73;;;29.95;;
53267;SDS011;39156;51.176;6.738;2023-08-30T07:20:44;31.48;;;29.58;;
53267;SDS011;39156;51.176;6.738;2023-08-30T07:23:10;30.48;;;28.77;;
53267;SDS011;39156;51.176;6.738;2023-08-30T07:25:36;31.75;;;29.95;;
53267;SDS011;39156;51.176;6.738;2023-08-30T07:28:03;32.20;;;30.05;;
53267;SDS011;39156;51.176;6.738;2023-08-30T07:30:30;32.42;;;29.88;;
53267;SDS011;39156;51.176;6.738;2023-08-30T07:32:56;32.42;;;30.63;;
53267;SDS011;39156;51.176;6.738;2023-08-30T07:35:21;30.90;;;29.20;;
53267;SDS011;39156;51.176;6.738;2023-08-30T07:37:47;32.53;;;30.48;;
53267;SDS011;39156;51.176;6.738;2023-08-30T07:40:13;32.28;;;30.42;;
53267;SDS011;39156;51.176;6.738;2023-08-30T07:42:39;33.28;;;31.20;;
53267;SDS011;39156;51.176;6.738;2023-08-30T07:45:05;33.15;;;31.20;;
53267;SDS011;39156;51.176;6.738;2023-08-30T07:47:31;32.63;;;30.77;;
53267;SDS011;39156;51.176;6.738;2023-08-30T07:49:57;33.65;;;31.58;;
53267;SDS011;39156;51.176;6.738;2023-08-30T07:52:23;32.22;;;30.35;;
53267;SDS011;39156;51.176;6.738;2023-08-30T07:54:48;33.17;;;31.30;;
53267;SDS011;39156;51.176;6.738;2023-08-30T07:57:14;32.90;;;30.77;;
53267;SDS011;39156;51.176;6.738;2023-08-30T07:59:40;33.78;;;31.88;;
53267;SDS011;39156;51.176;6.738;2023-08-30T08:02:06;32.38;;;30.58;;
53267;SDS011;39156;51.176;6.738;2023-08-30T08:06:59;34.83;;;32.72;;
53267;SDS011;39156;51.176;6.738;2023-08-30T08:09:25;33.80;;;31.67;;
53267;SDS011;39156;51.176;6.738;2023-08-30T08:11:51;32.97;;;31.00;;
53267;SDS011;39156;51.176;6.738;2023-08-30T08:14:16;33.05;;;31.25;;
53267;SDS011;39156;51.176;6.738;2023-08-30T08:16:42;33.13;;;31.13;;
53267;SDS011;39156;51.176;6.738;2023-08-30T08:19:08;33.05;;;31.20;;
53267;SDS011;39156;51.176;6.738;2023-08-30T08:21:34;35.17;;;32.70;;
53267;SDS011;39156;51.176;6.738;2023-08-30T08:24:00;33.45;;;31.55;;
53267;SDS011;39156;51.176;6.738;2023-08-30T08:28:53;32.45;;;30.45;;
53267;SDS011;39156;51.176;6.738;2023-08-30T08:31:20;31.88;;;29.80;;
53267;SDS011;39156;51.176;6.738;2023-08-30T08:36:16;31.83;;;29.92;;
53267;SDS011;39156;51.176;6.738;2023-08-30T08:38:41;31.42;;;29.73;;
53267;SDS011;39156;51.176;6.738;2023-08-30T08:41:08;31.77;;;29.88;;
53267;SDS011;39156;51.176;6.738;2023-08-30T08:43:37;31.77;;;29.98;;
53267;SDS011;39156;51.176;6.738;2023-08-30T08:46:05;32.40;;;30.30;;
53267;SDS011;39156;51.176;6.738;2023-08-30T08:48:33;34.20;;;31.73;;
53267;SDS011;39156;51.176;6.738;2023-08-30T08:51:05;33.17;;;30.75;;
53267;SDS011;39156;51.176;6.738;2023-08-30T08:53:30;32.20;;;30.20;;
53267;SDS011;39156;51.176;6.738;2023-08-30T08:55:58;32.95;;;30.95;;
53267;SDS011;39156;51.176;6.738;2023-08-30T08:58:25;31.90;;;29.90;;
53267;SDS011;39156;51.176;6.738;2023-08-30T09:00:52;32.33;;;29.63;;
53267;SDS011;39156;51.176;6.738;2023-08-30T09:03:18;32.25;;;30.15;;
53267;SDS011;39156;51.176;6.738;2023-08-30T09:05:45;32.28;;;30.48;;
53267;SDS011;39156;51.176;6.738;2023-08-30T09:08:11;32.55;;;30.65;;
53267;SDS011;39156;51.176;6.738;2023-08-30T09:10:39;32.78;;;30.90;;
53267;SDS011;39156;51.176;6.738;2023-08-30T09:15:31;33.13;;;31.23;;
53267;SDS011;39156;51.176;6.738;2023-08-30T09:17:58;33.17;;;31.17;;
53267;SDS011;39156;51.176;6.738;2023-08-30T09:20:24;33.80;;;31.65;;
53267;SDS011;39156;51.176;6.738;2023-08-30T09:22:49;33.28;;;31.42;;
53267;SDS011;39156;51.176;6.738;2023-08-30T09:25:27;33.30;;;31.30;;
53267;SDS011;39156;51.176;6.738;2023-08-30T09:27:58;35.03;;;33.00;;
53267;SDS011;39156;51.176;6.738;2023-08-30T09:30:24;32.00;;;30.20;;
53267;SDS011;39156;51.176;6.738;2023-08-30T09:35:17;33.17;;;31.38;;
53267;SDS011;39156;51.176;6.738;2023-08-30T09:37:46;32.72;;;30.73;;
53267;SDS011;39156;51.176;6.738;2023-08-30T09:40:12;33.28;;;31.27;;
53267;SDS011;39156;51.176;6.738;2023-08-30T09:42:43;33.08;;;31.23;;
53267;SDS011;39156;51.176;6.738;2023-08-30T09:45:21;32.67;;;30.87;;
53267;SDS011;39156;51.176;6.738;2023-08-30T09:47:48;32.85;;;30.95;;
53267;SDS011;39156;51.176;6.738;2023-08-30T09:50:16;32.42;;;30.50;;
53267;SDS011;39156;51.176;6.738;2023-08-30T09:52:44;32.08;;;30.15;;
53267;SDS011;39156;51.176;6.738;2023-08-30T09:55:14;32.17;;;30.48;;
53267;SDS011;39156;51.176;6.738;2023-08-30T09:57:41;32.58;;;30.60;;
53267;SDS011;39156;51.176;6.738;2023-08-30T10:00:10;33.72;;;31.75;;
53267;SDS011;39156;51.176;6.738;2023-08-30T10:02:41;33.45;;;31.55;;
53267;SDS011;39156;51.176;6.738;2023-08-30T10:05:08;34.47;;;32.58;;
53267;SDS011;39156;51.176;6.738;2023-08-30T10:07:37;34.20;;;32.00;;
53267;SDS011;39156;51.176;6.738;2023-08-30T10:10:04;34.75;;;32.65;;
53267;SDS011;39156;51.176;6.738;2023-08-30T10:12:31;33.63;;;31.73;;
53267;SDS011;39156;51.176;6.738;2023-08-30T10:14:57;33.00;;;31.10;;
53267;SDS011;39156;51.176;6.738;2023-08-30T10:17:23;35.40;;;33.03;;
53267;SDS011;39156;51.176;6.738;2023-08-30T10:19:57;33.30;;;31.45;;
53267;SDS011;39156;51.176;6.738;2023-08-30T10:22:24;31.35;;;29.65;;
53267;SDS011;39156;51.176;6.738;2023-08-30T10:27:21;34.35;;;32.40;;
53267;SDS011;39156;51.176;6.738;2023-08-30T10:29:49;34.10;;;32.13;;
53267;SDS011;39156;51.176;6.738;2023-08-30T10:32:19;34.83;;;32.92;;
53267;SDS011;39156;51.176;6.738;2023-08-30T10:34:49;32.90;;;30.95;;
53267;SDS011;39156;51.176;6.738;2023-08-30T10:37:16;32.53;;;30.67;;
53267;SDS011;39156;51.176;6.738;2023-08-30T10:39:51;35.20;;;33.20;;
53267;SDS011;39156;51.176;6.738;2023-08-30T10:42:21;34.55;;;32.45;;
53267;SDS011;39156;51.176;6.738;2023-08-30T10:44:58;34.15;;;32.25;;
53267;SDS011;39156;51.176;6.738;2023-08-30T10:47:29;35.05;;;33.13;;
53267;SDS011;39156;51.176;6.738;2023-08-30T10:49:58;35.03;;;32.97;;
53267;SDS011;39156;51.176;6.738;2023-08-30T10:52:25;34.65;;;32.65;;
53267;SDS011;39156;51.176;6.738;2023-08-30T10:55:03;34.45;;;32.35;;
53267;SDS011;39156;51.176;6.738;2023-08-30T10:57:33;35.10;;;33.20;;
53267;SDS011;39156;51.176;6.738;2023-08-30T11:00:06;36.50;;;34.40;;
53267;SDS011;39156;51.176;6.738;2023-08-30T11:02:34;33.83;;;31.92;;
53267;SDS011;39156;51.176;6.738;2023-08-30T11:05:06;34.13;;;32.20;;
53267;SDS011;39156;51.176;6.738;2023-08-30T11:07:33;37.88;;;35.33;;
53267;SDS011;39156;51.176;6.738;2023-08-30T11:09:59;35.33;;;33.10;;
53267;SDS011;39156;51.176;6.738;2023-08-30T11:12:25;36.43;;;34.13;;
53267;SDS011;39156;51.176;6.738;2023-08-30T11:14:52;36.80;;;34.80;;
53267;SDS011;39156;51.176;6.738;2023-08-30T11:17:19;34.25;;;32.40;;
53267;SDS011;39156;51.176;6.738;2023-08-30T11:19:45;35.50;;;33.37;;
53267;SDS011;39156;51.176;6.738;2023-08-30T11:22:13;36.95;;;34.88;;
53267;SDS011;39156;51.176;6.738;2023-08-30T11:24:41;34.50;;;32.65;;
53267;SDS011;39156;51.176;6.738;2023-08-30T11:29:34;34.60;;;32.70;;
53267;SDS011;39156;51.176;6.738;2023-08-30T11:32:00;34.37;;;32.57;;
53267;SDS011;39156;51.176;6.738;2023-08-30T11:34:26;34.35;;;32.45;;
53267;SDS011;39156;51.176;6.738;2023-08-30T11:36:52;35.10;;;33.20;;
53267;SDS011;39156;51.176;6.738;2023-08-30T11:39:18;36.92;;;34.72;;
53267;SDS011;39156;51.176;6.738;2023-08-30T11:44:12;36.58;;;34.35;;
53267;SDS011;39156;51.176;6.738;2023-08-30T11:46:38;35.45;;;33.38;;
53267;SDS011;39156;51.176;6.738;2023-08-30T11:49:03;34.63;;;32.73;;
53267;SDS011;39156;51.176;6.738;2023-08-30T11:51:30;35.28;;;33.35;;
53267;SDS011;39156;51.176;6.738;2023-08-30T11:53:56;35.83;;;33.83;;
53267;SDS011;39156;51.176;6.738;2023-08-30T11:56:22;37.58;;;35.30;;
53267;SDS011;39156;51.176;6.738;2023-08-30T11:58:49;35.28;;;33.38;;
53267;SDS011;39156;51.176;6.738;2023-08-30T12:01:16;36.80;;;34.90;;
53267;SDS011;39156;51.176;6.738;2023-08-30T12:03:44;34.60;;;32.80;;
53267;SDS011;39156;51.176;6.738;2023-08-30T12:06:15;36.20;;;34.20;;
53267;SDS011;39156;51.176;6.738;2023-08-30T12:08:41;36.25;;;34.22;;
53267;SDS011;39156;51.176;6.738;2023-08-30T12:11:16;34.90;;;33.03;;
53267;SDS011;39156;51.176;6.738;2023-08-30T12:13:44;34.88;;;32.97;;
53267;SDS011;39156;51.176;6.738;2023-08-30T12:16:14;33.22;;;31.52;;
53267;SDS011;39156;51.176;6.738;2023-08-30T12:18:43;33.58;;;31.77;;
53267;SDS011;39156;51.176;6.738;2023-08-30T12:21:09;35.50;;;33.50;;
53267;SDS011;39156;51.176;6.738;2023-08-30T12:23:35;36.20;;;34.30;;
53267;SDS011;39156;51.176;6.738;2023-08-30T12:28:31;35.47;;;33.58;;
53267;SDS011;39156;51.176;6.738;2023-08-30T12:30:59;34.13;;;32.33;;
53267;SDS011;39156;51.176;6.738;2023-08-30T12:33:25;34.03;;;32.23;;
53267;SDS011;39156;51.176;6.738;2023-08-30T12:35:53;33.83;;;32.00;;
53267;SDS011;39156;51.176;6.738;2023-08-30T12:38:19;36.30;;;34.25;;
53267;SDS011;39156;51.176;6.738;2023-08-30T12:40:46;35.55;;;33.63;;
53267;SDS011;39156;51.176;6.738;2023-08-30T12:43:14;36.08;;;34.08;;
53267;SDS011;39156;51.176;6.738;2023-08-30T12:45:40;34.05;;;32.25;;
53267;SDS011;39156;51.176;6.738;2023-08-30T12:48:07;35.22;;;33.40;;
53267;SDS011;39156;51.176;6.738;2023-08-30T12:50:35;33.10;;;31.30;;
53267;SDS011;39156;51.176;6.738;2023-08-30T12:55:28;35.03;;;33.13;;
53267;SDS011;39156;51.176;6.738;2023-08-30T12:57:54;34.23;;;32.50;;
53267;SDS011;39156;51.176;6.738;2023-08-30T13:00:19;34.13;;;32.33;;
53267;SDS011;39156;51.176;6.738;2023-08-30T13:02:45;34.55;;;32.75;;
53267;SDS011;39156;51.176;6.738;2023-08-30T13:05:11;34.00;;;32.20;;
53267;SDS011;39156;51.176;6.738;2023-08-30T13:07:37;35.30;;;33.40;;
53267;SDS011;39156;51.176;6.738;2023-08-30T13:10:04;33.67;;;31.85;;
53267;SDS011;39156;51.176;6.738;2023-08-30T13:12:31;34.90;;;32.92;;
53267;SDS011;39156;51.176;6.738;2023-08-30T13:14:57;33.87;;;32.07;;
53267;SDS011;39156;51.176;6.738;2023-08-30T13:17:23;34.23;;;32.50;;
53267;SDS011;39156;51.176;6.738;2023-08-30T13:19:49;36.20;;;34.40;;
53267;SDS011;39156;51.176;6.738;2023-08-30T13:24:42;34.45;;;32.65;;
53267;SDS011;39156;51.176;6.738;2023-08-30T13:27:09;33.20;;;31.40;;
53267;SDS011;39156;51.176;6.738;2023-08-30T13:29:35;33.45;;;31.67;;
53267;SDS011;39156;51.176;6.738;2023-08-30T13:32:01;32.70;;;31.00;;
53267;SDS011;39156;51.176;6.738;2023-08-30T13:34:28;33.83;;;32.13;;
53267;SDS011;39156;51.176;6.738;2023-08-30T13:39:20;34.85;;;33.10;;
53267;SDS011;39156;51.176;6.738;2023-08-30T13:41:46;32.80;;;31.10;;
53267;SDS011;39156;51.176;6.738;2023-08-30T13:44:13;33.73;;;32.03;;
53267;SDS011;39156;51.176;6.738;2023-08-30T13:46:39;33.70;;;32.00;;
53267;SDS011;39156;51.176;6.738;2023-08-30T13:49:05;34.87;;;33.10;;
53267;SDS011;39156;51.176;6.738;2023-08-30T13:51:30;34.50;;;32.80;;
53267;SDS011;39156;51.176;6.738;2023-08-30T13:53:57;34.92;;;33.13;;
53267;SDS011;39156;51.176;6.738;2023-08-30T13:56:23;36.00;;;34.10;;
53267;SDS011;39156;51.176;6.738;2023-08-30T13:58:49;33.70;;;31.80;;
53267;SDS011;39156;51.176;6.738;2023-08-30T14:01:14;36.63;;;34.73;;
53267;SDS011;39156;51.176;6.738;2023-08-30T14:03:41;32.90;;;31.20;;
53267;SDS011;39156;51.176;6.738;2023-08-30T14:06:07;35.00;;;33.20;;
53267;SDS011;39156;51.176;6.738;2023-08-30T14:08:33;33.00;;;31.20;;
53267;SDS011;39156;51.176;6.738;2023-08-30T14:11:00;34.15;;;32.45;;
53267;SDS011;39156;51.176;6.738;2023-08-30T14:13:26;34.17;;;32.37;;
53267;SDS011;39156;51.176;6.738;2023-08-30T14:15:53;35.72;;;33.65;;
53267;SDS011;39156;51.176;6.738;2023-08-30T14:18:19;35.70;;;33.77;;
53267;SDS011;39156;51.176;6.738;2023-08-30T14:20:44;34.77;;;32.97;;
53267;SDS011;39156;51.176;6.738;2023-08-30T14:23:10;35.37;;;33.57;;
53267;SDS011;39156;51.176;6.738;2023-08-30T14:25:36;35.00;;;33.00;;
53267;SDS011;39156;51.176;6.738;2023-08-30T14:28:02;32.70;;;31.00;;
53267;SDS011;39156;51.176;6.738;2023-08-30T14:30:29;33.90;;;32.03;;
53267;SDS011;39156;51.176;6.738;2023-08-30T14:32:55;35.85;;;34.00;;
53267;SDS011;39156;51.176;6.738;2023-08-30T14:35:21;33.53;;;31.63;;
53267;SDS011;39156;51.176;6.738;2023-08-30T14:37:49;33.92;;;32.10;;
53267;SDS011;39156;51.176;6.738;2023-08-30T14:40:15;34.38;;;32.58;;
53267;SDS011;39156;51.176;6.738;2023-08-30T14:42:42;33.60;;;31.80;;
53267;SDS011;39156;51.176;6.738;2023-08-30T14:45:07;35.67;;;33.67;;
53267;SDS011;39156;51.176;6.738;2023-08-30T14:47:33;35.42;;;33.58;;
53267;SDS011;39156;51.176;6.738;2023-08-30T14:49:59;35.58;;;33.47;;
53267;SDS011;39156;51.176;6.738;2023-08-30T14:52:27;34.42;;;32.63;;
53267;SDS011;39156;51.176;6.738;2023-08-30T14:54:54;33.50;;;31.73;;
53267;SDS011;39156;51.176;6.738;2023-08-30T14:57:20;36.50;;;34.60;;
53267;SDS011;39156;51.176;6.738;2023-08-30T14:59:46;34.50;;;32.70;;
53267;SDS011;39156;51.176;6.738;2023-08-30T15:02:12;37.67;;;35.65;;
53267;SDS011;39156;51.176;6.738;2023-08-30T15:04:39;34.72;;;32.85;;
53267;SDS011;39156;51.176;6.738;2023-08-30T15:07:05;33.50;;;31.75;;
53267;SDS011;39156;51.176;6.738;2023-08-30T15:09:31;35.50;;;33.50;;